createdAt,value
2024-03-04T00:00:34.624Z,25.87
2024-03-04T00:03:02.825Z,26.43
2024-03-04T00:05:30.502Z,27.57
2024-03-04T00:07:59.577Z,26.70
2024-03-04T00:10:27.689Z,25.10
2024-03-04T00:12:56.388Z,28.03
2024-03-04T00:15:24.504Z,27.90
2024-03-04T00:17:52.219Z,27.43
2024-03-04T00:20:20.485Z,28.20
2024-03-04T00:22:48.713Z,27.50
2024-03-04T00:25:18.542Z,28.20
2024-03-04T00:27:46.403Z,29.70
2024-03-04T00:30:14.540Z,28.27
2024-03-04T00:32:42.285Z,28.13
2024-03-04T00:35:12.009Z,28.43
2024-03-04T00:37:39.728Z,29.33
2024-03-04T00:40:08.163Z,29.47
2024-03-04T00:42:39.516Z,28.13
2024-03-04T00:45:07.942Z,28.47
2024-03-04T00:47:35.862Z,29.30
2024-03-04T00:50:03.813Z,30.47
2024-03-04T00:52:31.760Z,29.13
2024-03-04T00:54:59.443Z,29.27
2024-03-04T00:57:27.380Z,30.60
2024-03-04T00:59:56.953Z,29.17
2024-03-04T01:02:24.559Z,28.70
2024-03-04T01:04:52.291Z,28.87
2024-03-04T01:07:19.965Z,29.93
2024-03-04T01:09:47.721Z,29.13
2024-03-04T01:12:15.796Z,29.00
2024-03-04T01:14:43.616Z,29.27
2024-03-04T01:17:17.931Z,28.97
2024-03-04T01:19:48.158Z,29.20
2024-03-04T01:22:17.657Z,29.33
2024-03-04T01:24:45.883Z,30.53
2024-03-04T01:27:13.705Z,29.67
2024-03-04T01:29:42.569Z,28.37
2024-03-04T01:32:11.686Z,28.00
2024-03-04T01:34:41.611Z,27.80
2024-03-04T01:37:09.966Z,28.67
2024-03-04T01:39:38.057Z,28.23
2024-03-04T01:42:06.160Z,27.67
2024-03-04T01:44:34.780Z,28.10
2024-03-04T01:47:04.101Z,28.10
2024-03-04T01:49:32.612Z,27.73
2024-03-04T01:52:02.059Z,27.70
2024-03-04T01:54:30.047Z,26.03
2024-03-04T01:56:58.679Z,27.13
2024-03-04T01:59:26.747Z,27.23
2024-03-04T02:01:54.641Z,26.90
2024-03-04T02:04:22.585Z,26.13
2024-03-04T02:06:52.176Z,26.00
2024-03-04T02:09:21.879Z,24.60
2024-03-04T02:11:49.566Z,25.70
2024-03-04T02:14:17.182Z,24.13
2024-03-04T02:16:46.276Z,23.80
2024-03-04T02:19:16.265Z,22.67
2024-03-04T02:21:47.233Z,22.83
2024-03-04T02:24:16.487Z,22.23
2024-03-04T02:26:45.162Z,22.57
2024-03-04T02:29:13.215Z,21.63
2024-03-04T02:31:41.430Z,22.50
2024-03-04T02:34:09.762Z,21.80
2024-03-04T02:36:37.917Z,23.53
2024-03-04T02:39:05.851Z,22.77
2024-03-04T02:41:35.130Z,22.63
2024-03-04T02:44:02.882Z,22.60
2024-03-04T02:46:30.794Z,22.30
2024-03-04T02:48:59.174Z,20.63
2024-03-04T02:51:27.011Z,21.37
2024-03-04T02:53:54.745Z,21.07
2024-03-04T02:56:22.359Z,21.20
2024-03-04T02:58:51.473Z,20.93
2024-03-04T03:01:19.442Z,21.00
2024-03-04T03:03:47.163Z,21.63
2024-03-04T03:06:14.800Z,20.23
2024-03-04T03:08:42.626Z,19.97
2024-03-04T03:11:10.375Z,18.23
2024-03-04T03:13:38.464Z,17.67
2024-03-04T03:16:07.875Z,15.90
2024-03-04T03:18:36.361Z,16.57
2024-03-04T03:21:05.495Z,16.37
2024-03-04T03:23:33.124Z,16.87
2024-03-04T03:26:00.741Z,17.80
2024-03-04T03:28:28.979Z,16.83
2024-03-04T03:30:56.862Z,16.53
2024-03-04T03:33:25.822Z,16.87
2024-03-04T03:35:53.558Z,16.17
2024-03-04T03:38:21.296Z,16.90
2024-03-04T03:40:49.133Z,15.87
2024-03-04T03:43:18.552Z,15.90
2024-03-04T03:45:46.282Z,14.50
2024-03-04T03:48:16.697Z,14.67
2024-03-04T03:50:46.272Z,15.20
2024-03-04T03:53:13.927Z,15.43
2024-03-04T03:55:41.638Z,13.97
2024-03-04T03:58:09.358Z,13.53
2024-03-04T04:00:37.556Z,14.20
2024-03-04T04:03:05.479Z,13.30
2024-03-04T04:05:33.135Z,12.87
2024-03-04T04:08:02.133Z,12.17
2024-03-04T04:10:30.039Z,12.20
2024-03-04T04:12:57.787Z,12.70
2024-03-04T04:15:28.309Z,13.00
2024-03-04T04:17:57.485Z,14.33
2024-03-04T04:20:26.373Z,13.77
2024-03-04T04:22:53.968Z,12.63
2024-03-04T04:25:23.245Z,12.10
2024-03-04T04:27:50.925Z,13.00
2024-03-04T04:30:18.787Z,11.20
2024-03-04T04:32:46.864Z,11.30
2024-03-04T04:35:14.528Z,10.37
2024-03-04T04:37:43.157Z,10.07
2024-03-04T04:40:12.140Z,9.97
2024-03-04T04:42:41.756Z,10.70
2024-03-04T04:45:09.537Z,11.20
2024-03-04T04:47:37.238Z,11.20
2024-03-04T04:50:05.739Z,11.50
2024-03-04T04:52:33.805Z,10.00
2024-03-04T04:55:02.191Z,10.80
2024-03-04T04:57:29.908Z,10.70
2024-03-04T04:59:59.069Z,10.63
2024-03-04T05:02:26.638Z,10.77
2024-03-04T05:04:57.956Z,10.60
2024-03-04T05:07:27.659Z,10.10
2024-03-04T05:09:56.024Z,9.40
2024-03-04T05:12:23.782Z,9.40
2024-03-04T05:14:51.996Z,10.07
2024-03-04T05:17:21.673Z,8.70
2024-03-04T05:19:49.397Z,9.23
2024-03-04T05:22:17.037Z,9.17
2024-03-04T05:24:45.736Z,9.20
2024-03-04T05:27:13.603Z,9.90
2024-03-04T05:29:41.289Z,9.10
2024-03-04T05:32:09.165Z,8.97
2024-03-04T05:34:40.741Z,8.50
2024-03-04T05:37:08.522Z,8.77
2024-03-04T05:39:36.134Z,9.30
2024-03-04T05:42:03.733Z,9.07
2024-03-04T05:44:31.571Z,8.40
2024-03-04T05:46:59.567Z,7.73
2024-03-04T05:49:27.529Z,8.90
2024-03-04T05:51:59.755Z,8.70
2024-03-04T05:54:27.511Z,8.40
2024-03-04T05:56:55.174Z,9.50
2024-03-04T05:59:23.034Z,8.63
2024-03-04T06:01:50.734Z,9.13
2024-03-04T06:04:18.636Z,9.10
2024-03-04T06:06:47.448Z,9.10
2024-03-04T06:09:18.024Z,8.87
2024-03-04T06:11:46.997Z,9.27
2024-03-04T06:14:14.740Z,8.90
2024-03-04T06:16:42.755Z,9.80
2024-03-04T06:19:10.452Z,9.13
2024-03-04T06:21:38.213Z,9.00
2024-03-04T06:24:06.136Z,9.57
2024-03-04T06:26:35.549Z,9.57
2024-03-04T06:29:03.181Z,9.53
2024-03-04T06:31:30.873Z,9.60
2024-03-04T06:34:05.952Z,9.30
2024-03-04T06:36:42.416Z,9.93
2024-03-04T06:39:10.760Z,9.67
2024-03-04T06:41:39.826Z,9.80
2024-03-04T06:44:08.765Z,10.73
2024-03-04T06:46:36.590Z,12.67
2024-03-04T06:49:04.723Z,11.43
2024-03-04T06:51:36.325Z,13.03
2024-03-04T06:54:04.890Z,11.67
2024-03-04T06:56:32.759Z,12.53
2024-03-04T06:59:02.433Z,12.57
2024-03-04T07:01:30.583Z,12.10
2024-03-04T07:03:58.561Z,13.37
2024-03-04T07:06:26.671Z,14.50
2024-03-04T07:08:54.395Z,13.53
2024-03-04T07:11:22.387Z,14.60
2024-03-04T07:13:50.766Z,14.57
2024-03-04T07:16:20.760Z,16.40
2024-03-04T07:18:48.723Z,15.40
2024-03-04T07:21:16.843Z,15.90
2024-03-04T07:23:45.207Z,15.70
2024-03-04T07:26:15.436Z,16.60
2024-03-04T07:28:44.962Z,15.57
2024-03-04T07:31:12.904Z,15.63
2024-03-04T07:33:44.333Z,15.80
2024-03-04T07:36:15.533Z,15.83
2024-03-04T07:38:44.515Z,15.53
2024-03-04T07:41:12.156Z,16.10
2024-03-04T07:43:42.422Z,16.27
2024-03-04T07:46:10.236Z,17.77
2024-03-04T07:48:37.898Z,16.97
2024-03-04T07:51:07.719Z,16.87
2024-03-04T07:53:35.353Z,16.27
2024-03-04T07:56:03.127Z,16.37
2024-03-04T07:58:30.884Z,15.40
2024-03-04T08:01:01.149Z,15.40
2024-03-04T08:03:28.933Z,16.73
2024-03-04T08:05:56.956Z,16.03
2024-03-04T08:08:25.932Z,14.43
2024-03-04T08:10:53.823Z,14.87
2024-03-04T08:13:21.840Z,15.50
2024-03-04T08:15:50.135Z,14.67
2024-03-04T08:18:17.995Z,14.50
2024-03-04T08:20:45.929Z,15.40
2024-03-04T08:23:13.880Z,15.53
2024-03-04T08:25:43.530Z,16.00
2024-03-04T08:28:19.963Z,14.10
2024-03-04T08:30:55.761Z,14.30
2024-03-04T08:33:23.523Z,14.80
2024-03-04T08:35:51.170Z,14.57
2024-03-04T08:38:18.832Z,15.93
2024-03-04T08:40:48.336Z,16.43
2024-03-04T08:43:16.612Z,16.43
2024-03-04T08:45:44.285Z,17.20
2024-03-04T08:48:11.963Z,18.83
2024-03-04T08:50:39.832Z,17.63
2024-03-04T08:53:07.731Z,16.70
2024-03-04T08:55:35.497Z,17.10
2024-03-04T08:58:04.711Z,16.97
2024-03-04T09:00:32.835Z,17.50
2024-03-04T09:03:00.598Z,17.17
2024-03-04T09:05:28.301Z,16.13
2024-03-04T09:07:55.930Z,17.10
2024-03-04T09:10:23.758Z,18.00
2024-03-04T09:12:51.528Z,17.43
2024-03-04T09:15:21.392Z,16.80
2024-03-04T09:17:49.191Z,19.40
2024-03-04T09:20:16.981Z,20.53
2024-03-04T09:22:44.719Z,20.67
2024-03-04T09:25:12.539Z,19.93
2024-03-04T09:27:41.210Z,21.20
2024-03-04T09:30:09.442Z,18.80
2024-03-04T09:32:38.644Z,18.73
2024-03-04T09:35:06.856Z,17.30
2024-03-04T09:37:34.582Z,22.37
2024-03-04T09:40:02.570Z,19.27
2024-03-04T09:42:31.301Z,22.60
2024-03-04T09:44:59.443Z,22.13
2024-03-04T09:47:27.298Z,19.83
2024-03-04T09:49:56.491Z,19.20
2024-03-04T09:52:24.700Z,17.73
2024-03-04T09:54:52.650Z,17.23
2024-03-04T09:57:20.841Z,17.13
2024-03-04T09:59:50.322Z,18.07
2024-03-04T10:02:18.563Z,17.33
2024-03-04T10:04:46.372Z,17.97
2024-03-04T10:07:15.837Z,19.00
2024-03-04T10:09:43.639Z,16.77
2024-03-04T10:12:12.080Z,17.10
2024-03-04T10:14:59.744Z,16.57
2024-03-04T10:17:28.283Z,15.83
2024-03-04T10:19:59.880Z,16.67
2024-03-04T10:22:33.385Z,17.60
2024-03-04T10:25:05.616Z,15.57
2024-03-04T10:27:33.442Z,16.63
2024-03-04T10:30:11.346Z,15.23
2024-03-04T10:32:39.640Z,15.03
2024-03-04T10:35:08.013Z,15.67
2024-03-04T10:37:37.536Z,15.17
2024-03-04T10:40:06.418Z,16.20
2024-03-04T10:42:34.520Z,17.00
2024-03-04T10:45:05.381Z,18.63
2024-03-04T10:47:33.644Z,17.53
2024-03-04T10:50:01.782Z,17.67
2024-03-04T10:52:30.090Z,15.90
2024-03-04T10:54:59.558Z,16.20
2024-03-04T10:57:30.646Z,16.10
2024-03-04T10:59:58.993Z,16.43
2024-03-04T11:02:30.804Z,15.30
2024-03-04T11:05:01.857Z,17.07
2024-03-04T11:07:33.038Z,17.30
2024-03-04T11:10:06.005Z,20.03
2024-03-04T11:12:35.052Z,20.93
2024-03-04T11:15:08.328Z,18.37
2024-03-04T11:17:37.947Z,17.40
2024-03-04T11:20:06.853Z,16.67
2024-03-04T11:22:35.544Z,15.80
2024-03-04T11:25:05.944Z,14.93
2024-03-04T11:27:34.132Z,13.63
2024-03-04T11:30:02.222Z,14.40
2024-03-04T11:32:32.484Z,13.97
2024-03-04T11:35:02.484Z,13.33
2024-03-04T11:37:30.352Z,12.33
2024-03-04T11:39:58.620Z,11.93
2024-03-04T11:42:37.064Z,10.43
2024-03-04T11:45:08.939Z,10.30
2024-03-04T11:47:36.947Z,10.70
2024-03-04T11:50:09.949Z,10.37
2024-03-04T11:52:39.581Z,9.57
2024-03-04T11:55:09.358Z,10.63
2024-03-04T11:57:38.518Z,9.07
2024-03-04T12:00:10.608Z,10.70
2024-03-04T12:02:38.887Z,13.23
2024-03-04T12:05:07.021Z,13.23
2024-03-04T12:07:34.961Z,14.93
2024-03-04T12:10:12.341Z,16.13
2024-03-04T12:12:45.667Z,18.50
2024-03-04T12:15:13.286Z,18.40
2024-03-04T12:17:41.722Z,15.13
2024-03-04T12:20:10.163Z,12.70
2024-03-04T12:22:38.798Z,12.53
2024-03-04T12:25:07.789Z,10.10
2024-03-04T12:27:36.170Z,9.80
2024-03-04T12:30:13.074Z,9.33
2024-03-04T12:32:41.157Z,9.37
2024-03-04T12:35:16.246Z,8.90
2024-03-04T12:37:44.637Z,8.80
2024-03-04T12:40:13.098Z,13.67
2024-03-04T12:42:41.025Z,23.90
2024-03-04T12:45:09.016Z,21.27
2024-03-04T12:47:38.039Z,13.87
2024-03-04T12:50:06.963Z,13.13
2024-03-04T12:52:35.921Z,14.63
2024-03-04T12:55:03.739Z,13.83
2024-03-04T12:57:31.433Z,14.33
2024-03-04T13:00:00.411Z,11.90
2024-03-04T13:02:28.080Z,11.63
2024-03-04T13:04:57.547Z,12.80
2024-03-04T13:07:25.476Z,12.07
2024-03-04T13:09:53.448Z,14.03
2024-03-04T13:12:21.137Z,14.87
2024-03-04T13:14:49.050Z,16.97
2024-03-04T13:17:18.899Z,13.60
2024-03-04T13:19:46.893Z,14.60
2024-03-04T13:22:16.116Z,14.33
2024-03-04T13:24:45.014Z,10.67
2024-03-04T13:27:13.140Z,11.50
2024-03-04T13:29:40.944Z,11.07
2024-03-04T13:32:08.591Z,9.53
2024-03-04T13:34:36.299Z,8.97
2024-03-04T13:37:04.222Z,8.63
2024-03-04T13:39:33.316Z,9.30
2024-03-04T13:42:00.947Z,8.17
2024-03-04T13:44:28.600Z,7.60
2024-03-04T13:46:56.455Z,8.40
2024-03-04T13:49:24.822Z,7.97
2024-03-04T13:51:52.531Z,7.07
2024-03-04T13:54:20.167Z,8.07
2024-03-04T13:56:49.307Z,8.17
2024-03-04T13:59:19.159Z,7.23
2024-03-04T14:01:47.187Z,9.13
2024-03-04T14:04:14.954Z,8.20
2024-03-04T14:06:42.754Z,9.57
2024-03-04T14:09:10.516Z,8.83
2024-03-04T14:11:38.267Z,8.57
2024-03-04T14:14:07.321Z,8.27
2024-03-04T14:16:36.322Z,8.87
2024-03-04T14:19:04.822Z,10.27
2024-03-04T14:21:32.522Z,9.70
2024-03-04T14:24:00.526Z,9.33
2024-03-04T14:26:28.176Z,9.07
2024-03-04T14:28:56.114Z,10.97
2024-03-04T14:31:25.372Z,12.03
2024-03-04T14:33:54.040Z,10.80
2024-03-04T14:36:22.338Z,11.03
2024-03-04T14:38:50.304Z,9.93
2024-03-04T14:41:19.069Z,10.00
2024-03-04T14:43:47.106Z,10.97
2024-03-04T14:46:15.340Z,12.87
2024-03-04T14:48:46.588Z,10.53
2024-03-04T14:51:16.353Z,9.97
2024-03-04T14:53:44.404Z,8.30
2024-03-04T14:56:13.174Z,7.73
2024-03-04T14:58:40.890Z,6.77
2024-03-04T15:01:10.513Z,7.23
2024-03-04T15:03:38.419Z,7.77
2024-03-04T15:06:07.870Z,7.17
2024-03-04T15:08:36.071Z,6.60
2024-03-04T15:11:12.565Z,5.97
2024-03-04T15:13:40.630Z,5.50
2024-03-04T15:16:09.370Z,5.83
2024-03-04T15:18:37.761Z,5.50
2024-03-04T15:21:07.196Z,5.67
2024-03-04T15:23:36.507Z,5.80
2024-03-04T15:26:04.424Z,5.47
2024-03-04T15:28:32.157Z,5.53
2024-03-04T15:30:59.818Z,5.90
2024-03-04T15:33:27.954Z,6.53
2024-03-04T15:36:00.413Z,8.07
2024-03-04T15:38:34.675Z,9.35
2024-03-04T15:41:04.108Z,9.00
2024-03-04T15:43:35.245Z,8.67
2024-03-04T15:46:03.218Z,9.10
2024-03-04T15:48:31.267Z,8.60
2024-03-04T15:50:59.092Z,13.33
2024-03-04T15:53:26.701Z,16.60
2024-03-04T15:55:54.839Z,18.43
2024-03-04T15:58:26.118Z,16.40
2024-03-04T16:00:54.177Z,14.20
2024-03-04T16:03:21.989Z,12.60
2024-03-04T16:05:49.893Z,11.67
2024-03-04T16:08:17.902Z,12.20
2024-03-04T16:10:46.028Z,12.20
2024-03-04T16:13:14.560Z,12.30
2024-03-04T16:15:51.828Z,12.83
2024-03-04T16:18:21.546Z,13.37
2024-03-04T16:20:49.177Z,14.00
2024-03-04T16:23:16.982Z,14.20
2024-03-04T16:25:44.758Z,16.47
2024-03-04T16:28:12.569Z,14.97
2024-03-04T16:30:41.826Z,15.80
2024-03-04T16:33:11.072Z,16.47
2024-03-04T16:35:38.794Z,15.03
2024-03-04T16:38:06.694Z,11.87
2024-03-04T16:40:34.705Z,10.53
2024-03-04T16:43:02.804Z,10.40
2024-03-04T16:45:31.947Z,9.60
2024-03-04T16:47:59.804Z,9.67
2024-03-04T16:50:28.987Z,9.70
2024-03-04T16:52:56.791Z,9.30
2024-03-04T16:55:24.517Z,10.93
2024-03-04T16:57:53.241Z,10.90
2024-03-04T17:00:21.184Z,11.27
2024-03-04T17:02:49.081Z,10.83
2024-03-04T17:05:16.939Z,10.47
2024-03-04T17:07:49.330Z,12.50
2024-03-04T17:10:17.774Z,11.50
2024-03-04T17:12:45.676Z,12.03
2024-03-04T17:15:13.710Z,12.00
2024-03-04T17:17:41.854Z,13.97
2024-03-04T17:20:11.104Z,13.13
2024-03-04T17:22:39.147Z,11.97
2024-03-04T17:25:09.369Z,13.07
2024-03-04T17:27:37.113Z,13.03
2024-03-04T17:30:07.754Z,13.03
2024-03-04T17:32:35.487Z,12.57
2024-03-04T17:35:04.963Z,14.20
2024-03-04T17:37:32.683Z,13.03
2024-03-04T17:40:00.908Z,15.23
2024-03-04T17:42:31.664Z,14.63
2024-03-04T17:44:59.922Z,14.60
2024-03-04T17:47:27.660Z,16.27
2024-03-04T17:49:55.855Z,15.43
2024-03-04T17:52:23.712Z,16.40
2024-03-04T17:54:51.646Z,16.00
2024-03-04T17:57:19.522Z,16.40
2024-03-04T17:59:48.743Z,16.23
2024-03-04T18:02:19.741Z,17.20
2024-03-04T18:04:49.201Z,15.87
2024-03-04T18:07:17.455Z,18.17
2024-03-04T18:09:46.406Z,18.13
2024-03-04T18:12:14.323Z,17.07
2024-03-04T18:14:42.554Z,16.67
2024-03-04T18:17:11.731Z,16.77
2024-03-04T18:19:39.425Z,16.10
2024-03-04T18:22:07.787Z,16.60
2024-03-04T18:24:36.179Z,17.03
2024-03-04T18:27:04.052Z,16.47
2024-03-04T18:29:30.835Z,17.17
2024-03-04T18:31:59.085Z,17.10
2024-03-04T18:34:30.674Z,17.80
2024-03-04T18:36:59.701Z,18.40
2024-03-04T18:39:28.529Z,17.40
2024-03-04T18:41:57.982Z,19.33
2024-03-04T18:44:25.621Z,17.47
2024-03-04T18:46:53.504Z,17.17
2024-03-04T18:49:21.319Z,16.90
2024-03-04T18:51:50.962Z,17.07
2024-03-04T18:54:19.012Z,18.00
2024-03-04T18:56:47.447Z,17.97
2024-03-04T18:59:15.067Z,17.30
2024-03-04T19:01:43.109Z,19.00
2024-03-04T19:04:10.875Z,17.67
2024-03-04T19:06:38.978Z,17.00
2024-03-04T19:09:09.713Z,17.03
2024-03-04T19:11:37.494Z,16.13
2024-03-04T19:14:05.152Z,17.33
2024-03-04T19:16:32.938Z,17.70
2024-03-04T19:19:00.593Z,17.37
2024-03-04T19:21:28.890Z,16.93
2024-03-04T19:23:56.558Z,17.50
2024-03-04T19:26:26.789Z,17.37
2024-03-04T19:28:54.564Z,17.10
2024-03-04T19:31:23.092Z,16.50
2024-03-04T19:33:53.741Z,17.20
2024-03-04T19:36:21.719Z,17.00
2024-03-04T19:38:49.326Z,16.70
2024-03-04T19:41:17.809Z,17.40
2024-03-04T19:43:46.967Z,16.80
2024-03-04T19:46:20.237Z,16.60
2024-03-04T19:48:49.546Z,17.63
2024-03-04T19:51:18.039Z,17.07
2024-03-04T19:53:46.207Z,16.67
2024-03-04T19:56:14.135Z,16.50
2024-03-04T19:58:42.903Z,17.80
2024-03-04T20:01:13.156Z,15.67
2024-03-04T20:03:42.424Z,16.53
2024-03-04T20:06:10.391Z,16.33
2024-03-04T20:08:38.635Z,17.40
2024-03-04T20:11:09.924Z,17.40
2024-03-04T20:13:39.631Z,16.57
2024-03-04T20:16:07.753Z,17.87
2024-03-04T20:18:37.446Z,16.63
2024-03-04T20:21:08.008Z,18.00
2024-03-04T20:23:39.597Z,18.10
2024-03-04T20:26:08.571Z,16.50
2024-03-04T20:28:36.859Z,18.17
2024-03-04T20:31:05.111Z,18.20
2024-03-04T20:33:34.406Z,17.73
2024-03-04T20:36:05.528Z,17.27
2024-03-04T20:38:33.517Z,18.43
2024-03-04T20:41:01.633Z,17.87
2024-03-04T20:43:30.019Z,18.53
2024-03-04T20:45:58.439Z,19.73
2024-03-04T20:48:30.554Z,19.43
2024-03-04T20:50:58.833Z,18.47
2024-03-04T20:53:28.286Z,20.70
2024-03-04T20:55:56.677Z,21.00
2024-03-04T20:58:24.596Z,20.23
2024-03-04T21:00:52.692Z,20.83
2024-03-04T21:03:22.700Z,21.60
2024-03-04T21:05:50.321Z,22.50
2024-03-04T21:08:18.542Z,24.90
2024-03-04T21:10:48.387Z,22.63
2024-03-04T21:13:16.416Z,24.77
2024-03-04T21:15:44.091Z,26.23
2024-03-04T21:18:12.367Z,27.63
2024-03-04T21:20:39.960Z,25.43
2024-03-04T21:23:07.829Z,26.20
2024-03-04T21:25:36.747Z,26.27
2024-03-04T21:28:07.405Z,26.53
2024-03-04T21:30:35.182Z,26.67
2024-03-04T21:33:03.239Z,26.90
2024-03-04T21:35:32.577Z,27.50
2024-03-04T21:38:00.224Z,26.50
2024-03-04T21:40:28.291Z,27.63
2024-03-04T21:42:56.215Z,28.13
2024-03-04T21:45:25.272Z,28.97
2024-03-04T21:47:53.470Z,29.20
2024-03-04T21:50:21.042Z,26.77
2024-03-04T21:52:48.969Z,27.70
2024-03-04T21:55:18.405Z,31.53
2024-03-04T21:57:46.179Z,29.87
2024-03-04T22:00:19.466Z,31.47
2024-03-04T22:02:48.323Z,30.80
2024-03-04T22:05:17.438Z,31.53
2024-03-04T22:07:48.569Z,33.40
2024-03-04T22:10:16.564Z,32.67
2024-03-04T22:12:44.184Z,32.77
2024-03-04T22:15:11.776Z,34.27
2024-03-04T22:17:39.483Z,34.70
2024-03-04T22:20:13.569Z,34.10
2024-03-04T22:22:41.768Z,34.07
2024-03-04T22:25:10.634Z,32.43
2024-03-04T22:27:38.222Z,33.97
2024-03-04T22:30:06.178Z,34.80
2024-03-04T22:32:33.686Z,33.63
2024-03-04T22:35:02.115Z,34.40
2024-03-04T22:37:31.851Z,35.50
2024-03-04T22:39:59.857Z,35.57
2024-03-04T22:42:27.581Z,35.23
2024-03-04T22:44:56.517Z,36.53
2024-03-04T22:47:24.709Z,37.20
2024-03-04T22:49:52.580Z,36.10
2024-03-04T22:52:20.377Z,35.57
2024-03-04T22:54:49.677Z,33.53
2024-03-04T22:57:17.538Z,33.10
2024-03-04T22:59:45.464Z,34.40
2024-03-04T23:02:13.662Z,37.07
2024-03-04T23:04:41.932Z,37.07
2024-03-04T23:07:09.594Z,36.87
2024-03-04T23:09:39.307Z,39.17
2024-03-04T23:12:10.135Z,41.13
2024-03-04T23:14:38.395Z,40.10
2024-03-04T23:17:09.383Z,38.40
2024-03-04T23:19:37.778Z,38.17
2024-03-04T23:22:06.957Z,38.83
2024-03-04T23:24:34.662Z,39.23
2024-03-04T23:27:02.302Z,39.70
2024-03-04T23:29:31.313Z,38.77
2024-03-04T23:31:58.984Z,38.57
2024-03-04T23:34:26.912Z,39.17
2024-03-04T23:36:55.231Z,39.27
2024-03-04T23:39:24.457Z,40.30
2024-03-04T23:41:53.009Z,40.13
2024-03-04T23:44:22.035Z,38.40
2024-03-04T23:46:50.995Z,39.30
2024-03-04T23:49:19.194Z,39.33
2024-03-04T23:51:46.878Z,39.50
2024-03-04T23:54:15.424Z,39.17
2024-03-04T23:56:43.229Z,39.60
2024-03-04T23:59:11.320Z,38.40
